sensor_id;sensor_type;location;lat;lon;timestamp;pressure;altitude;pressure_sealevel;temperature;humidity
77867;BME280;67271;59.120;37.970;2023-03-04T00:05:13;98099.63;;;-1.76;79.29
77867;BME280;67271;59.120;37.970;2023-03-04T00:07:39;98093.19;;;-1.74;79.04
77867;BME280;67271;59.120;37.970;2023-03-04T00:10:05;98097.66;;;-1.74;79.53
77867;BME280;67271;59.120;37.970;2023-03-04T00:12:31;98096.00;;;-1.75;79.32
77867;BME280;67271;59.120;37.970;2023-03-04T00:14:57;98086.69;;;-1.71;79.30
77867;BME280;67271;59.120;37.970;2023-03-04T00:17:23;98092.50;;;-1.68;79.33
77867;BME280;67271;59.120;37.970;2023-03-04T00:19:49;98088.03;;;-1.67;79.43
77867;BME280;67271;59.120;37.970;2023-03-04T00:22:14;98089.69;;;-1.66;79.46
77867;BME280;67271;59.120;37.970;2023-03-04T00:24:40;98083.34;;;-1.65;79.29
77867;BME280;67271;59.120;37.970;2023-03-04T00:27:06;98084.53;;;-1.68;79.70
77867;BME280;67271;59.120;37.970;2023-03-04T00:29:32;98081.91;;;-1.68;79.37
77867;BME280;67271;59.120;37.970;2023-03-04T00:31:57;98072.94;;;-1.67;79.52
77867;BME280;67271;59.120;37.970;2023-03-04T00:34:23;98075.41;;;-1.65;79.65
77867;BME280;67271;59.120;37.970;2023-03-04T00:36:49;98075.06;;;-1.62;79.65
77867;BME280;67271;59.120;37.970;2023-03-04T00:39:16;98069.78;;;-1.62;79.53
77867;BME280;67271;59.120;37.970;2023-03-04T00:41:41;98068.13;;;-1.63;79.84
77867;BME280;67271;59.120;37.970;2023-03-04T00:44:07;98072.41;;;-1.62;79.31
77867;BME280;67271;59.120;37.970;2023-03-04T00:46:33;98070.28;;;-1.59;79.80
77867;BME280;67271;59.120;37.970;2023-03-04T00:48:59;98080.22;;;-1.61;79.50
77867;BME280;67271;59.120;37.970;2023-03-04T00:51:24;98073.41;;;-1.63;79.74
77867;BME280;67271;59.120;37.970;2023-03-04T00:53:50;98068.13;;;-1.63;79.55
77867;BME280;67271;59.120;37.970;2023-03-04T00:56:17;98061.16;;;-1.64;79.77
77867;BME280;67271;59.120;37.970;2023-03-04T00:58:43;98070.09;;;-1.65;79.45
77867;BME280;67271;59.120;37.970;2023-03-04T01:01:09;98066.81;;;-1.67;79.63
77867;BME280;67271;59.120;37.970;2023-03-04T01:03:34;98069.31;;;-1.66;79.61
77867;BME280;67271;59.120;37.970;2023-03-04T01:06:00;98070.09;;;-1.65;79.58
77867;BME280;67271;59.120;37.970;2023-03-04T01:08:26;98058.84;;;-1.67;79.55
77867;BME280;67271;59.120;37.970;2023-03-04T01:10:52;98060.69;;;-1.68;79.55
77867;BME280;67271;59.120;37.970;2023-03-04T01:13:18;98067.63;;;-1.67;79.60
77867;BME280;67271;59.120;37.970;2023-03-04T01:15:44;98060.50;;;-1.66;79.74
77867;BME280;67271;59.120;37.970;2023-03-04T01:18:10;98065.63;;;-1.65;79.41
77867;BME280;67271;59.120;37.970;2023-03-04T01:20:36;98062.81;;;-1.63;79.51
77867;BME280;67271;59.120;37.970;2023-03-04T01:23:01;98047.25;;;-1.66;79.19
77867;BME280;67271;59.120;37.970;2023-03-04T01:25:27;98048.72;;;-1.64;79.39
77867;BME280;67271;59.120;37.970;2023-03-04T01:27:53;98050.53;;;-1.64;79.41
77867;BME280;67271;59.120;37.970;2023-03-04T01:30:19;98047.06;;;-1.65;79.30
77867;BME280;67271;59.120;37.970;2023-03-04T01:32:44;98045.25;;;-1.64;79.40
77867;BME280;67271;59.120;37.970;2023-03-04T01:35:10;98044.59;;;-1.66;79.41
77867;BME280;67271;59.120;37.970;2023-03-04T01:37:36;98041.97;;;-1.66;79.54
77867;BME280;67271;59.120;37.970;2023-03-04T01:40:02;98043.13;;;-1.69;79.52
77867;BME280;67271;59.120;37.970;2023-03-04T01:42:32;98040.47;;;-1.69;79.61
77867;BME280;67271;59.120;37.970;2023-03-04T01:44:59;98039.81;;;-1.71;79.44
77867;BME280;67271;59.120;37.970;2023-03-04T01:47:28;98033.84;;;-1.73;79.85
77867;BME280;67271;59.120;37.970;2023-03-04T01:49:55;98033.19;;;-1.75;79.52
77867;BME280;67271;59.120;37.970;2023-03-04T01:52:22;98035.34;;;-1.78;79.56
77867;BME280;67271;59.120;37.970;2023-03-04T01:54:49;98028.75;;;-1.82;79.63
77867;BME280;67271;59.120;37.970;2023-03-04T01:57:17;98029.59;;;-1.82;79.74
77867;BME280;67271;59.120;37.970;2023-03-04T01:59:43;98025.75;;;-1.79;79.95
77867;BME280;67271;59.120;37.970;2023-03-04T02:02:11;98029.06;;;-1.77;79.80
77867;BME280;67271;59.120;37.970;2023-03-04T02:04:38;98026.06;;;-1.74;79.56
77867;BME280;67271;59.120;37.970;2023-03-04T02:07:04;98024.25;;;-1.74;79.44
77867;BME280;67271;59.120;37.970;2023-03-04T02:09:32;98021.06;;;-1.69;79.42
77867;BME280;67271;59.120;37.970;2023-03-04T02:11:58;98022.56;;;-1.67;79.19
77867;BME280;67271;59.120;37.970;2023-03-04T02:14:24;98015.94;;;-1.71;79.04
77867;BME280;67271;59.120;37.970;2023-03-04T02:16:51;98018.59;;;-1.71;79.10
77867;BME280;67271;59.120;37.970;2023-03-04T02:21:55;98020.94;;;-1.76;79.58
77867;BME280;67271;59.120;37.970;2023-03-04T02:24:42;98019.28;;;-1.77;79.58
77867;BME280;67271;59.120;37.970;2023-03-04T02:27:10;98002.88;;;-1.80;79.38
77867;BME280;67271;59.120;37.970;2023-03-04T02:29:37;98007.38;;;-1.81;79.66
77867;BME280;67271;59.120;37.970;2023-03-04T02:32:03;98018.16;;;-1.82;79.38
77867;BME280;67271;59.120;37.970;2023-03-04T02:34:33;97999.25;;;-1.87;79.49
77867;BME280;67271;59.120;37.970;2023-03-04T02:37:01;97988.34;;;-1.92;79.76
77867;BME280;67271;59.120;37.970;2023-03-04T02:40:01;98004.63;;;-1.96;79.60
77867;BME280;67271;59.120;37.970;2023-03-04T02:42:20;98007.09;;;-2.02;79.82
77867;BME280;67271;59.120;37.970;2023-03-04T02:44:46;98015.53;;;-1.99;79.78
77867;BME280;67271;59.120;37.970;2023-03-04T02:47:16;98006.25;;;-1.95;79.62
77867;BME280;67271;59.120;37.970;2023-03-04T02:49:43;98000.44;;;-1.90;79.57
77867;BME280;67271;59.120;37.970;2023-03-04T02:52:16;98007.22;;;-1.87;79.38
77867;BME280;67271;59.120;37.970;2023-03-04T02:54:42;98002.41;;;-1.84;79.52
77867;BME280;67271;59.120;37.970;2023-03-04T02:57:10;98001.72;;;-1.78;79.39
77867;BME280;67271;59.120;37.970;2023-03-04T02:59:40;97996.59;;;-1.79;79.51
77867;BME280;67271;59.120;37.970;2023-03-04T03:02:08;97992.59;;;-1.75;79.31
77867;BME280;67271;59.120;37.970;2023-03-04T03:04:36;97991.25;;;-1.71;79.22
77867;BME280;67271;59.120;37.970;2023-03-04T03:07:06;97988.09;;;-1.67;79.37
77867;BME280;67271;59.120;37.970;2023-03-04T03:09:32;97978.97;;;-1.64;79.29
77867;BME280;67271;59.120;37.970;2023-03-04T03:11:57;97982.59;;;-1.65;79.22
77867;BME280;67271;59.120;37.970;2023-03-04T03:14:23;97972.81;;;-1.65;79.08
77867;BME280;67271;59.120;37.970;2023-03-04T03:16:49;97978.13;;;-1.65;79.08
77867;BME280;67271;59.120;37.970;2023-03-04T03:19:15;97981.59;;;-1.64;79.37
77867;BME280;67271;59.120;37.970;2023-03-04T03:21:41;97967.34;;;-1.63;79.14
77867;BME280;67271;59.120;37.970;2023-03-04T03:24:07;97972.00;;;-1.65;79.37
77867;BME280;67271;59.120;37.970;2023-03-04T03:26:33;97960.75;;;-1.67;79.07
77867;BME280;67271;59.120;37.970;2023-03-04T03:28:58;97956.63;;;-1.70;79.01
77867;BME280;67271;59.120;37.970;2023-03-04T03:31:26;97951.84;;;-1.74;79.34
77867;BME280;67271;59.120;37.970;2023-03-04T03:33:52;97956.81;;;-1.79;79.21
77867;BME280;67271;59.120;37.970;2023-03-04T03:36:18;97948.25;;;-1.81;79.67
77867;BME280;67271;59.120;37.970;2023-03-04T03:38:44;97951.22;;;-1.84;79.45
77867;BME280;67271;59.120;37.970;2023-03-04T03:41:09;97947.28;;;-1.88;79.21
77867;BME280;67271;59.120;37.970;2023-03-04T03:43:35;97947.13;;;-1.95;79.97
77867;BME280;67271;59.120;37.970;2023-03-04T03:46:01;97948.63;;;-2.01;79.72
77867;BME280;67271;59.120;37.970;2023-03-04T03:48:27;97936.91;;;-2.06;79.89
77867;BME280;67271;59.120;37.970;2023-03-04T03:50:53;97939.88;;;-2.09;80.13
77867;BME280;67271;59.120;37.970;2023-03-04T03:53:18;97942.72;;;-2.11;80.12
77867;BME280;67271;59.120;37.970;2023-03-04T03:55:44;97935.09;;;-2.14;80.14
77867;BME280;67271;59.120;37.970;2023-03-04T03:58:10;97932.78;;;-2.17;80.29
77867;BME280;67271;59.120;37.970;2023-03-04T04:00:36;97936.09;;;-2.15;80.26
77867;BME280;67271;59.120;37.970;2023-03-04T04:03:01;97932.78;;;-2.17;80.04
77867;BME280;67271;59.120;37.970;2023-03-04T04:05:27;97931.50;;;-2.21;80.17
77867;BME280;67271;59.120;37.970;2023-03-04T04:07:53;97923.72;;;-2.22;80.59
77867;BME280;67271;59.120;37.970;2023-03-04T04:10:19;97926.69;;;-2.25;80.60
77867;BME280;67271;59.120;37.970;2023-03-04T04:12:45;97927.34;;;-2.23;80.29
77867;BME280;67271;59.120;37.970;2023-03-04T04:15:11;97921.38;;;-2.25;80.62
77867;BME280;67271;59.120;37.970;2023-03-04T04:17:38;97917.94;;;-2.26;80.27
77867;BME280;67271;59.120;37.970;2023-03-04T04:20:05;97918.75;;;-2.25;80.18
77867;BME280;67271;59.120;37.970;2023-03-04T04:22:31;97916.44;;;-2.28;80.35
77867;BME280;67271;59.120;37.970;2023-03-04T04:24:57;97912.47;;;-2.33;80.83
77867;BME280;67271;59.120;37.970;2023-03-04T04:27:22;97906.72;;;-2.36;80.74
77867;BME280;67271;59.120;37.970;2023-03-04T04:29:48;97907.69;;;-2.37;80.79
77867;BME280;67271;59.120;37.970;2023-03-04T04:32:14;97905.22;;;-2.39;80.91
77867;BME280;67271;59.120;37.970;2023-03-04T04:34:39;97908.69;;;-2.38;80.82
77867;BME280;67271;59.120;37.970;2023-03-04T04:37:05;97914.66;;;-2.36;80.73
77867;BME280;67271;59.120;37.970;2023-03-04T04:39:31;97909.34;;;-2.36;80.81
77867;BME280;67271;59.120;37.970;2023-03-04T04:41:56;97915.78;;;-2.30;80.66
77867;BME280;67271;59.120;37.970;2023-03-04T04:44:22;97909.34;;;-2.28;80.80
77867;BME280;67271;59.120;37.970;2023-03-04T04:46:48;97911.47;;;-2.23;80.69
77867;BME280;67271;59.120;37.970;2023-03-04T04:49:14;97908.94;;;-2.17;80.33
77867;BME280;67271;59.120;37.970;2023-03-04T04:51:39;97914.59;;;-2.12;80.04
77867;BME280;67271;59.120;37.970;2023-03-04T04:54:06;97908.09;;;-2.09;79.98
77867;BME280;67271;59.120;37.970;2023-03-04T04:56:32;97915.53;;;-2.05;79.76
77867;BME280;67271;59.120;37.970;2023-03-04T04:59:01;97906.41;;;-2.02;79.95
77867;BME280;67271;59.120;37.970;2023-03-04T05:01:27;97908.56;;;-1.98;79.88
77867;BME280;67271;59.120;37.970;2023-03-04T05:03:53;97907.38;;;-1.95;79.75
77867;BME280;67271;59.120;37.970;2023-03-04T05:06:21;97908.84;;;-1.92;79.70
77867;BME280;67271;59.120;37.970;2023-03-04T05:08:47;97904.06;;;-1.89;79.20
77867;BME280;67271;59.120;37.970;2023-03-04T05:11:14;97903.84;;;-1.87;79.52
77867;BME280;67271;59.120;37.970;2023-03-04T05:13:39;97902.69;;;-1.85;79.54
77867;BME280;67271;59.120;37.970;2023-03-04T05:16:06;97899.88;;;-1.83;79.47
77867;BME280;67271;59.120;37.970;2023-03-04T05:18:32;97903.81;;;-1.79;79.38
77867;BME280;67271;59.120;37.970;2023-03-04T05:20:59;97905.44;;;-1.70;79.32
77867;BME280;67271;59.120;37.970;2023-03-04T05:23:27;97905.72;;;-1.65;79.37
77867;BME280;67271;59.120;37.970;2023-03-04T05:25:53;97900.63;;;-1.67;79.02
77867;BME280;67271;59.120;37.970;2023-03-04T05:28:19;97896.78;;;-1.64;79.21
77867;BME280;67271;59.120;37.970;2023-03-04T05:30:45;97899.91;;;-1.61;79.46
77867;BME280;67271;59.120;37.970;2023-03-04T05:33:13;97899.38;;;-1.56;78.91
77867;BME280;67271;59.120;37.970;2023-03-04T05:35:40;97904.16;;;-1.51;79.35
77867;BME280;67271;59.120;37.970;2023-03-04T05:38:08;97898.50;;;-1.48;78.90
77867;BME280;67271;59.120;37.970;2023-03-04T05:40:35;97893.97;;;-1.40;78.73
77867;BME280;67271;59.120;37.970;2023-03-04T05:43:01;97895.06;;;-1.34;78.44
77867;BME280;67271;59.120;37.970;2023-03-04T05:45:27;97894.56;;;-1.30;78.23
77867;BME280;67271;59.120;37.970;2023-03-04T05:47:53;97890.91;;;-1.29;78.09
77867;BME280;67271;59.120;37.970;2023-03-04T05:50:20;97889.25;;;-1.30;78.17
77867;BME280;67271;59.120;37.970;2023-03-04T05:52:46;97882.47;;;-1.32;78.63
77867;BME280;67271;59.120;37.970;2023-03-04T05:55:12;97885.25;;;-1.26;78.43
77867;BME280;67271;59.120;37.970;2023-03-04T05:57:38;97886.34;;;-1.20;78.09
77867;BME280;67271;59.120;37.970;2023-03-04T06:00:06;97888.94;;;-1.12;77.89
77867;BME280;67271;59.120;37.970;2023-03-04T06:02:38;97876.97;;;-1.08;77.58
77867;BME280;67271;59.120;37.970;2023-03-04T06:05:06;97883.66;;;-0.97;77.69
77867;BME280;67271;59.120;37.970;2023-03-04T06:07:32;97879.59;;;-0.85;76.94
77867;BME280;67271;59.120;37.970;2023-03-04T06:09:58;97884.75;;;-0.69;76.85
77867;BME280;67271;59.120;37.970;2023-03-04T06:12:24;97877.97;;;-0.57;76.64
77867;BME280;67271;59.120;37.970;2023-03-04T06:14:50;97883.03;;;-0.47;76.54
77867;BME280;67271;59.120;37.970;2023-03-04T06:17:16;97878.81;;;-0.42;76.52
77867;BME280;67271;59.120;37.970;2023-03-04T06:19:42;97873.97;;;-0.38;76.35
77867;BME280;67271;59.120;37.970;2023-03-04T06:22:08;97874.41;;;-0.34;76.21
77867;BME280;67271;59.120;37.970;2023-03-04T06:24:35;97877.56;;;-0.31;75.91
77867;BME280;67271;59.120;37.970;2023-03-04T06:27:01;97873.06;;;-0.30;76.13
77867;BME280;67271;59.120;37.970;2023-03-04T06:29:27;97873.41;;;-0.33;76.18
77867;BME280;67271;59.120;37.970;2023-03-04T06:31:53;97878.56;;;-0.32;76.33
77867;BME280;67271;59.120;37.970;2023-03-04T06:34:18;97874.06;;;-0.31;76.46
77867;BME280;67271;59.120;37.970;2023-03-04T06:36:44;97875.97;;;-0.25;76.20
77867;BME280;67271;59.120;37.970;2023-03-04T06:39:10;97880.47;;;-0.26;76.33
77867;BME280;67271;59.120;37.970;2023-03-04T06:41:36;97877.34;;;-0.29;76.40
77867;BME280;67271;59.120;37.970;2023-03-04T06:44:03;97879.16;;;-0.30;76.16
77867;BME280;67271;59.120;37.970;2023-03-04T06:46:29;97878.56;;;-0.32;76.20
77867;BME280;67271;59.120;37.970;2023-03-04T06:48:55;97872.84;;;-0.29;76.16
77867;BME280;67271;59.120;37.970;2023-03-04T06:51:21;97876.63;;;-0.23;75.79
77867;BME280;67271;59.120;37.970;2023-03-04T06:53:47;97879.47;;;-0.25;75.89
77867;BME280;67271;59.120;37.970;2023-03-04T06:56:13;97874.06;;;-0.17;75.68
77867;BME280;67271;59.120;37.970;2023-03-04T06:58:45;97873.50;;;-0.12;75.70
77867;BME280;67271;59.120;37.970;2023-03-04T07:01:15;97877.34;;;0.00;75.17
77867;BME280;67271;59.120;37.970;2023-03-04T07:03:41;97879.34;;;0.13;74.95
77867;BME280;67271;59.120;37.970;2023-03-04T07:06:12;97883.31;;;0.23;74.88
77867;BME280;67271;59.120;37.970;2023-03-04T07:08:38;97883.16;;;0.25;74.75
77867;BME280;67271;59.120;37.970;2023-03-04T07:11:04;97876.03;;;0.11;75.23
77867;BME280;67271;59.120;37.970;2023-03-04T07:13:30;97878.34;;;-0.01;75.20
77867;BME280;67271;59.120;37.970;2023-03-04T07:15:56;97876.41;;;-0.07;75.24
77867;BME280;67271;59.120;37.970;2023-03-04T07:18:21;97873.13;;;-0.09;75.10
77867;BME280;67271;59.120;37.970;2023-03-04T07:20:51;97873.53;;;0.09;74.77
77867;BME280;67271;59.120;37.970;2023-03-04T07:23:17;97872.91;;;0.22;74.33
77867;BME280;67271;59.120;37.970;2023-03-04T07:25:44;97870.03;;;0.23;74.18
77867;BME280;67271;59.120;37.970;2023-03-04T07:28:09;97870.44;;;0.42;74.16
77867;BME280;67271;59.120;37.970;2023-03-04T07:30:38;97866.03;;;0.70;73.58
77867;BME280;67271;59.120;37.970;2023-03-04T07:33:04;97869.22;;;0.80;73.11
77867;BME280;67271;59.120;37.970;2023-03-04T07:35:30;97870.09;;;0.87;73.21
77867;BME280;67271;59.120;37.970;2023-03-04T07:37:56;97870.97;;;0.94;72.98
77867;BME280;67271;59.120;37.970;2023-03-04T07:40:21;97864.56;;;1.10;72.52
77867;BME280;67271;59.120;37.970;2023-03-04T07:42:51;97865.63;;;1.15;72.25
77867;BME280;67271;59.120;37.970;2023-03-04T07:45:17;97862.72;;;1.38;71.92
77867;BME280;67271;59.120;37.970;2023-03-04T07:47:43;97862.75;;;1.45;71.68
77867;BME280;67271;59.120;37.970;2023-03-04T07:50:10;97860.72;;;1.47;71.83
77867;BME280;67271;59.120;37.970;2023-03-04T07:52:40;97858.38;;;1.65;71.27
77867;BME280;67271;59.120;37.970;2023-03-04T07:55:07;97850.69;;;1.83;70.95
77867;BME280;67271;59.120;37.970;2023-03-04T07:57:33;97861.03;;;2.00;70.50
77867;BME280;67271;59.120;37.970;2023-03-04T07:59:59;97849.88;;;1.89;71.00
77867;BME280;67271;59.120;37.970;2023-03-04T08:02:25;97853.88;;;2.07;70.46
77867;BME280;67271;59.120;37.970;2023-03-04T08:04:50;97850.84;;;2.23;70.42
77867;BME280;67271;59.120;37.970;2023-03-04T08:07:16;97847.19;;;2.37;70.15
77867;BME280;67271;59.120;37.970;2023-03-04T08:09:42;97848.44;;;2.41;70.17
77867;BME280;67271;59.120;37.970;2023-03-04T08:12:08;97843.91;;;2.35;70.13
77867;BME280;67271;59.120;37.970;2023-03-04T08:14:35;97842.84;;;2.23;70.40
77867;BME280;67271;59.120;37.970;2023-03-04T08:17:01;97850.00;;;2.16;70.59
77867;BME280;67271;59.120;37.970;2023-03-04T08:19:26;97843.88;;;2.22;70.65
77867;BME280;67271;59.120;37.970;2023-03-04T08:21:52;97838.56;;;2.35;70.34
77867;BME280;67271;59.120;37.970;2023-03-04T08:24:18;97839.00;;;2.45;70.07
77867;BME280;67271;59.120;37.970;2023-03-04T08:26:46;97842.53;;;2.52;69.84
77867;BME280;67271;59.120;37.970;2023-03-04T08:29:15;97845.00;;;2.67;69.67
77867;BME280;67271;59.120;37.970;2023-03-04T08:31:42;97838.66;;;2.88;68.86
77867;BME280;67271;59.120;37.970;2023-03-04T08:34:11;97847.50;;;2.95;69.04
77867;BME280;67271;59.120;37.970;2023-03-04T08:36:40;97836.81;;;2.82;68.66
77867;BME280;67271;59.120;37.970;2023-03-04T08:39:11;97844.81;;;2.82;68.77
77867;BME280;67271;59.120;37.970;2023-03-04T08:41:37;97848.69;;;2.59;69.17
77867;BME280;67271;59.120;37.970;2023-03-04T08:44:03;97850.09;;;2.49;70.00
77867;BME280;67271;59.120;37.970;2023-03-04T08:46:29;97841.06;;;2.50;69.87
77867;BME280;67271;59.120;37.970;2023-03-04T08:48:55;97850.72;;;2.44;69.24
77867;BME280;67271;59.120;37.970;2023-03-04T08:51:22;97854.16;;;2.25;69.72
77867;BME280;67271;59.120;37.970;2023-03-04T08:53:47;97854.09;;;2.12;69.75
77867;BME280;67271;59.120;37.970;2023-03-04T08:56:14;97849.56;;;2.06;70.19
77867;BME280;67271;59.120;37.970;2023-03-04T08:58:40;97844.84;;;2.08;69.76
77867;BME280;67271;59.120;37.970;2023-03-04T09:01:08;97842.22;;;2.21;69.17
77867;BME280;67271;59.120;37.970;2023-03-04T09:03:35;97841.41;;;2.27;69.17
77867;BME280;67271;59.120;37.970;2023-03-04T09:06:02;97839.41;;;2.42;69.22
77867;BME280;67271;59.120;37.970;2023-03-04T09:08:28;97834.72;;;2.57;68.55
77867;BME280;67271;59.120;37.970;2023-03-04T09:10:54;97837.19;;;2.59;68.55
77867;BME280;67271;59.120;37.970;2023-03-04T09:13:22;97840.06;;;2.64;68.52
77867;BME280;67271;59.120;37.970;2023-03-04T09:15:50;97842.53;;;2.65;68.09
77867;BME280;67271;59.120;37.970;2023-03-04T09:18:18;97838.84;;;2.60;67.98
77867;BME280;67271;59.120;37.970;2023-03-04T09:20:44;97841.53;;;2.80;67.66
77867;BME280;67271;59.120;37.970;2023-03-04T09:23:11;97836.81;;;2.95;67.23
77867;BME280;67271;59.120;37.970;2023-03-04T09:25:38;97833.13;;;3.09;66.84
77867;BME280;67271;59.120;37.970;2023-03-04T09:28:05;97846.91;;;3.06;66.66
77867;BME280;67271;59.120;37.970;2023-03-04T09:30:34;97834.34;;;2.93;67.22
77867;BME280;67271;59.120;37.970;2023-03-04T09:33:00;97835.41;;;3.05;66.81
77867;BME280;67271;59.120;37.970;2023-03-04T09:35:26;97839.09;;;3.11;66.64
77867;BME280;67271;59.120;37.970;2023-03-04T09:37:55;97833.34;;;3.14;66.56
77867;BME280;67271;59.120;37.970;2023-03-04T09:40:29;97831.28;;;3.03;66.38
77867;BME280;67271;59.120;37.970;2023-03-04T09:43:06;97833.53;;;2.80;66.96
77867;BME280;67271;59.120;37.970;2023-03-04T09:45:42;97830.63;;;2.68;67.35
77867;BME280;67271;59.120;37.970;2023-03-04T09:48:14;97837.00;;;2.67;67.58
77867;BME280;67271;59.120;37.970;2023-03-04T09:51:08;97829.81;;;2.54;67.58
77867;BME280;67271;59.120;37.970;2023-03-04T09:54:07;97822.81;;;2.47;67.98
77867;BME280;67271;59.120;37.970;2023-03-04T09:56:38;97829.75;;;2.41;67.88
77867;BME280;67271;59.120;37.970;2023-03-04T09:59:15;97836.44;;;2.11;68.54
77867;BME280;67271;59.120;37.970;2023-03-04T10:01:48;97834.72;;;1.97;68.67
77867;BME280;67271;59.120;37.970;2023-03-04T10:04:34;97834.84;;;1.75;69.05
77867;BME280;67271;59.120;37.970;2023-03-04T10:07:02;97832.59;;;1.72;69.27
77867;BME280;67271;59.120;37.970;2023-03-04T10:09:46;97829.06;;;2.13;67.93
77867;BME280;67271;59.120;37.970;2023-03-04T10:12:18;97828.34;;;2.58;66.86
77867;BME280;67271;59.120;37.970;2023-03-04T10:14:48;97831.28;;;2.90;65.99
77867;BME280;67271;59.120;37.970;2023-03-04T10:25:22;97820.59;;;2.70;67.29
77867;BME280;67271;59.120;37.970;2023-03-04T10:27:51;97813.78;;;2.61;67.78
77867;BME280;67271;59.120;37.970;2023-03-04T10:33:01;97813.66;;;2.02;69.05
77867;BME280;67271;59.120;37.970;2023-03-04T10:35:33;97810.56;;;2.05;68.76
77867;BME280;67271;59.120;37.970;2023-03-04T10:38:03;97816.06;;;1.97;68.77
77867;BME280;67271;59.120;37.970;2023-03-04T10:40:36;97804.81;;;2.01;68.46
77867;BME280;67271;59.120;37.970;2023-03-04T10:43:02;97794.56;;;2.11;68.02
77867;BME280;67271;59.120;37.970;2023-03-04T10:45:38;97796.50;;;2.37;67.60
77867;BME280;67271;59.120;37.970;2023-03-04T10:48:05;97798.38;;;2.56;67.13
77867;BME280;67271;59.120;37.970;2023-03-04T10:50:31;97797.16;;;2.65;66.86
77867;BME280;67271;59.120;37.970;2023-03-04T10:52:57;97803.75;;;2.69;66.75
77867;BME280;67271;59.120;37.970;2023-03-04T10:55:27;97798.41;;;2.69;66.95
77867;BME280;67271;59.120;37.970;2023-03-04T10:57:55;97807.84;;;2.79;66.71
77867;BME280;67271;59.120;37.970;2023-03-04T11:00:31;97800.44;;;2.67;66.92
77867;BME280;67271;59.120;37.970;2023-03-04T11:05:44;97795.94;;;2.68;66.95
77867;BME280;67271;59.120;37.970;2023-03-04T11:08:18;97796.13;;;2.73;67.17
77867;BME280;67271;59.120;37.970;2023-03-04T11:10:44;97780.13;;;2.93;66.78
77867;BME280;67271;59.120;37.970;2023-03-04T11:18:27;97778.25;;;3.20;66.17
77867;BME280;67271;59.120;37.970;2023-03-04T11:20:58;97772.91;;;3.13;66.28
77867;BME280;67271;59.120;37.970;2023-03-04T11:23:45;97772.72;;;2.95;67.12
77867;BME280;67271;59.120;37.970;2023-03-04T11:26:18;97774.34;;;2.96;67.04
77867;BME280;67271;59.120;37.970;2023-03-04T11:29:04;97770.06;;;3.08;66.49
77867;BME280;67271;59.120;37.970;2023-03-04T11:31:36;97766.13;;;3.17;66.64
77867;BME280;67271;59.120;37.970;2023-03-04T11:34:17;97768.78;;;3.17;66.32
77867;BME280;67271;59.120;37.970;2023-03-04T11:36:57;97763.88;;;3.14;66.36
77867;BME280;67271;59.120;37.970;2023-03-04T11:39:36;97759.38;;;3.08;66.54
77867;BME280;67271;59.120;37.970;2023-03-04T11:44:51;97761.19;;;3.01;66.32
77867;BME280;67271;59.120;37.970;2023-03-04T11:47:43;97764.09;;;2.93;66.19
77867;BME280;67271;59.120;37.970;2023-03-04T11:55:40;97758.53;;;2.94;66.07
77867;BME280;67271;59.120;37.970;2023-03-04T11:58:22;97755.69;;;2.76;66.31
77867;BME280;67271;59.120;37.970;2023-03-04T12:09:07;97752.97;;;2.50;66.48
77867;BME280;67271;59.120;37.970;2023-03-04T12:12:12;97762.44;;;2.52;66.39
77867;BME280;67271;59.120;37.970;2023-03-04T12:14:55;97755.25;;;2.53;66.36
77867;BME280;67271;59.120;37.970;2023-03-04T12:17:34;97757.31;;;2.51;67.04
77867;BME280;67271;59.120;37.970;2023-03-04T12:20:25;97754.84;;;2.49;66.46
77867;BME280;67271;59.120;37.970;2023-03-04T12:23:58;97746.63;;;2.38;66.90
77867;BME280;67271;59.120;37.970;2023-03-04T12:26:00;97745.78;;;2.30;66.95
77867;BME280;67271;59.120;37.970;2023-03-04T12:31:27;97749.47;;;2.23;67.33
77867;BME280;67271;59.120;37.970;2023-03-04T12:36:34;97736.31;;;2.02;67.72
77867;BME280;67271;59.120;37.970;2023-03-04T12:42:05;97737.91;;;1.96;67.43
77867;BME280;67271;59.120;37.970;2023-03-04T12:44:55;97735.25;;;1.96;67.34
77867;BME280;67271;59.120;37.970;2023-03-04T12:47:45;97736.06;;;1.97;67.28
77867;BME280;67271;59.120;37.970;2023-03-04T12:50:46;97739.97;;;1.94;67.44
77867;BME280;67271;59.120;37.970;2023-03-04T12:53:22;97733.38;;;1.83;67.32
77867;BME280;67271;59.120;37.970;2023-03-04T12:55:54;97734.72;;;1.66;67.96
77867;BME280;67271;59.120;37.970;2023-03-04T12:58:24;97733.72;;;1.67;67.70
77867;BME280;67271;59.120;37.970;2023-03-04T13:03:40;97736.97;;;1.56;67.76
77867;BME280;67271;59.120;37.970;2023-03-04T13:06:30;97728.13;;;1.49;68.07
77867;BME280;67271;59.120;37.970;2023-03-04T13:11:43;97733.84;;;1.46;68.44
77867;BME280;67271;59.120;37.970;2023-03-04T13:16:45;97719.28;;;1.42;68.13
77867;BME280;67271;59.120;37.970;2023-03-04T13:19:44;97731.16;;;1.46;67.98
77867;BME280;67271;59.120;37.970;2023-03-04T13:25:33;97725.38;;;1.36;68.71
77867;BME280;67271;59.120;37.970;2023-03-04T13:28:12;97725.63;;;1.41;68.44
77867;BME280;67271;59.120;37.970;2023-03-04T13:30:41;97727.06;;;1.43;68.18
77867;BME280;67271;59.120;37.970;2023-03-04T13:38:32;97720.84;;;1.30;68.84
77867;BME280;67271;59.120;37.970;2023-03-04T13:43:57;97720.50;;;1.39;68.48
77867;BME280;67271;59.120;37.970;2023-03-04T13:51:39;97720.69;;;1.38;68.92
77867;BME280;67271;59.120;37.970;2023-03-04T13:54:13;97721.50;;;1.38;68.83
77867;BME280;67271;59.120;37.970;2023-03-04T13:56:46;97715.50;;;1.30;68.70
77867;BME280;67271;59.120;37.970;2023-03-04T13:59:27;97723.66;;;1.22;69.09
77867;BME280;67271;59.120;37.970;2023-03-04T14:04:26;97723.22;;;1.11;69.68
77867;BME280;67271;59.120;37.970;2023-03-04T14:06:54;97714.75;;;1.01;69.97
77867;BME280;67271;59.120;37.970;2023-03-04T14:09:25;97723.06;;;0.92;69.54
77867;BME280;67271;59.120;37.970;2023-03-04T14:11:53;97718.13;;;0.82;70.34
77867;BME280;67271;59.120;37.970;2023-03-04T14:14:21;97715.19;;;0.77;70.59
77867;BME280;67271;59.120;37.970;2023-03-04T14:17:02;97718.47;;;0.72;70.45
77867;BME280;67271;59.120;37.970;2023-03-04T14:19:32;97726.63;;;0.71;70.49
77867;BME280;67271;59.120;37.970;2023-03-04T14:22:39;97722.72;;;0.67;70.33